createdAt,value
2023-02-18T00:00:55.095Z,3.03
2023-02-18T00:03:59.918Z,2.70
2023-02-18T00:07:03.526Z,3.40
2023-02-18T00:10:09.718Z,3.37
2023-02-18T00:13:11.906Z,3.27
2023-02-18T00:16:17.255Z,4.43
2023-02-18T00:19:22.319Z,3.03
2023-02-18T00:22:24.778Z,3.30
2023-02-18T00:25:29.110Z,3.00
2023-02-18T00:28:31.848Z,2.65
2023-02-18T00:31:36.957Z,2.10
2023-02-18T00:37:40.988Z,2.80
2023-02-18T00:40:44.128Z,2.30
2023-02-18T00:43:46.377Z,3.27
2023-02-18T00:46:49.883Z,3.83
2023-02-18T00:49:52.158Z,3.27
2023-02-18T00:52:54.340Z,3.07
2023-02-18T00:55:56.671Z,2.87
2023-02-18T00:58:58.949Z,3.63
2023-02-18T01:02:01.178Z,2.73
2023-02-18T01:05:03.549Z,2.73
2023-02-18T01:08:06.876Z,2.83
2023-02-18T01:11:11.739Z,3.35
2023-02-18T01:14:13.767Z,3.33
2023-02-18T01:17:16.093Z,3.20
2023-02-18T01:20:19.761Z,2.60
2023-02-18T01:23:23.243Z,2.87
2023-02-18T01:26:25.600Z,3.13
2023-02-18T01:29:28.235Z,4.40
2023-02-18T01:32:30.669Z,3.37
2023-02-18T01:35:33.167Z,3.43
2023-02-18T01:38:35.903Z,2.40
2023-02-18T01:41:37.919Z,4.50
2023-02-18T01:44:41.822Z,3.70
2023-02-18T01:47:43.829Z,3.83
2023-02-18T01:50:54.376Z,2.67
2023-02-18T01:54:22.582Z,3.20
2023-02-18T01:57:29.896Z,3.23
2023-02-18T02:00:32.950Z,4.00
2023-02-18T02:03:35.530Z,4.13
2023-02-18T02:06:37.606Z,3.00
2023-02-18T02:09:41.498Z,3.47
2023-02-18T02:12:49.573Z,3.10
2023-02-18T02:16:06.748Z,3.00
2023-02-18T02:19:18.454Z,3.43
2023-02-18T02:22:42.368Z,2.40
2023-02-18T02:25:53.414Z,3.10
2023-02-18T02:29:14.062Z,3.13
2023-02-18T02:32:52.465Z,3.47
2023-02-18T02:36:09.474Z,3.30
2023-02-18T02:39:38.302Z,2.87
2023-02-18T02:42:40.992Z,2.47
2023-02-18T02:46:11.634Z,2.80
2023-02-18T02:49:38.851Z,3.43
2023-02-18T02:52:54.318Z,3.23
2023-02-18T02:55:56.492Z,3.03
2023-02-18T02:59:02.194Z,3.47
2023-02-18T03:02:52.332Z,3.37
2023-02-18T03:05:57.343Z,3.30
2023-02-18T03:12:47.362Z,3.23
2023-02-18T03:15:56.069Z,4.27
2023-02-18T03:19:20.779Z,4.73
2023-02-18T03:22:29.179Z,3.13
2023-02-18T03:25:33.861Z,3.90
2023-02-18T03:28:38.559Z,3.57
2023-02-18T03:31:43.346Z,4.47
2023-02-18T03:34:51.878Z,3.20
2023-02-18T03:38:09.265Z,3.20
2023-02-18T03:41:12.692Z,3.40
2023-02-18T03:44:17.722Z,3.07
2023-02-18T03:47:22.689Z,3.33
2023-02-18T03:50:26.185Z,3.37
2023-02-18T03:53:28.524Z,3.73
2023-02-18T03:56:31.626Z,2.83
2023-02-18T03:59:34.027Z,2.93
2023-02-18T04:02:37.443Z,3.70
2023-02-18T04:05:39.623Z,4.43
2023-02-18T04:08:42.706Z,4.50
2023-02-18T04:11:45.526Z,3.13
2023-02-18T04:14:47.702Z,2.77
2023-02-18T04:17:50.348Z,4.07
2023-02-18T04:20:52.527Z,3.50
2023-02-18T04:23:54.871Z,3.27
2023-02-18T04:26:58.530Z,3.97
2023-02-18T04:30:00.727Z,3.33
2023-02-18T04:33:04.012Z,2.83
2023-02-18T04:36:08.232Z,2.33
2023-02-18T04:39:10.529Z,3.50
2023-02-18T04:42:13.554Z,4.00
2023-02-18T04:45:21.939Z,3.70
2023-02-18T04:48:32.022Z,2.70
2023-02-18T04:51:36.426Z,3.13
2023-02-18T04:54:38.605Z,3.10
2023-02-18T04:57:40.953Z,3.03
2023-02-18T05:00:43.395Z,2.97
2023-02-18T05:03:46.315Z,2.83
2023-02-18T05:06:48.642Z,2.50
2023-02-18T05:09:50.880Z,4.70
2023-02-18T05:12:53.341Z,3.30
2023-02-18T05:16:09.900Z,3.53
2023-02-18T05:19:16.122Z,3.83
2023-02-18T05:22:18.474Z,2.60
2023-02-18T05:25:20.518Z,4.03
2023-02-18T05:28:25.311Z,3.47
2023-02-18T05:34:29.631Z,3.30
2023-02-18T05:37:31.892Z,3.43
2023-02-18T05:40:37.932Z,3.17
2023-02-18T05:44:10.880Z,4.17
2023-02-18T05:47:13.778Z,3.63
2023-02-18T05:50:16.207Z,4.50
2023-02-18T05:53:18.269Z,2.83
2023-02-18T05:56:20.684Z,4.33
2023-02-18T05:59:23.387Z,3.50
2023-02-18T06:02:25.733Z,3.50
2023-02-18T06:05:28.086Z,3.03
2023-02-18T06:08:32.861Z,2.97
2023-02-18T06:11:36.074Z,3.10
2023-02-18T06:14:42.237Z,4.73
2023-02-18T06:17:47.989Z,2.87
2023-02-18T06:20:50.258Z,3.20
2023-02-18T06:23:52.555Z,3.97
2023-02-18T06:26:54.788Z,3.00
2023-02-18T06:29:59.159Z,3.50
2023-02-18T06:33:04.995Z,3.10
2023-02-18T06:36:11.870Z,3.33
2023-02-18T06:39:14.367Z,4.03
2023-02-18T06:42:17.643Z,3.73
2023-02-18T06:45:20.037Z,3.43
2023-02-18T06:48:22.232Z,3.00
2023-02-18T06:51:24.842Z,2.77
2023-02-18T06:54:27.071Z,3.87
2023-02-18T06:57:29.466Z,3.30
2023-02-18T07:00:31.757Z,3.63
2023-02-18T07:03:34.886Z,3.70
2023-02-18T07:06:37.416Z,3.43
2023-02-18T07:09:39.714Z,2.83
2023-02-18T07:12:43.742Z,3.50
2023-02-18T07:15:45.802Z,3.70
2023-02-18T07:18:49.361Z,3.47
2023-02-18T07:21:51.710Z,3.63
2023-02-18T07:24:54.531Z,3.63
2023-02-18T07:27:56.709Z,3.43
2023-02-18T07:30:59.552Z,3.03
2023-02-18T07:34:02.124Z,3.00
2023-02-18T07:37:09.322Z,3.53
2023-02-18T07:40:15.277Z,3.17
2023-02-18T07:43:17.747Z,3.50
2023-02-18T07:46:19.913Z,2.83
2023-02-18T07:49:21.919Z,3.53
2023-02-18T07:52:24.246Z,3.23
2023-02-18T07:55:46.240Z,3.60
2023-02-18T07:58:48.369Z,3.90
2023-02-18T08:01:50.653Z,3.53
2023-02-18T08:04:52.739Z,2.90
2023-02-18T08:07:55.065Z,3.87
2023-02-18T08:11:13.325Z,4.57
2023-02-18T08:14:20.513Z,4.37
2023-02-18T08:17:24.408Z,3.72
2023-02-18T08:20:27.313Z,3.80
2023-02-18T08:26:34.758Z,5.40
2023-02-18T08:29:36.739Z,3.70
2023-02-18T08:32:39.238Z,3.03
2023-02-18T08:35:42.093Z,3.10
2023-02-18T08:38:44.425Z,3.20
2023-02-18T08:41:46.844Z,4.43
2023-02-18T08:44:48.890Z,3.50
2023-02-18T08:48:19.404Z,4.27
2023-02-18T08:51:20.687Z,3.67
2023-02-18T08:54:22.788Z,4.17
2023-02-18T08:57:25.102Z,3.87
2023-02-18T09:00:27.400Z,3.63
2023-02-18T09:03:29.529Z,5.17
2023-02-18T09:06:31.807Z,4.30
2023-02-18T09:09:34.066Z,3.47
2023-02-18T09:12:36.458Z,4.40
2023-02-18T09:15:38.816Z,4.33
2023-02-18T09:18:41.821Z,3.67
2023-02-18T09:21:44.532Z,3.70
2023-02-18T09:24:46.944Z,3.17
2023-02-18T09:27:49.512Z,3.00
2023-02-18T09:30:54.797Z,3.57
2023-02-18T09:34:00.121Z,3.83
2023-02-18T09:37:02.825Z,3.30
2023-02-18T09:40:06.842Z,4.43
2023-02-18T09:43:41.732Z,3.53
2023-02-18T09:46:54.052Z,3.13
2023-02-18T09:50:00.606Z,3.30
2023-02-18T09:53:04.374Z,4.20
2023-02-18T09:56:07.510Z,3.83
2023-02-18T09:59:19.363Z,4.70
2023-02-18T10:02:21.912Z,3.65
2023-02-18T10:05:26.329Z,3.88
2023-02-18T10:08:35.548Z,3.15
2023-02-18T10:11:46.398Z,2.65
2023-02-18T10:14:57.724Z,4.50
2023-02-18T10:18:02.067Z,3.88
2023-02-18T10:21:14.182Z,3.35
2023-02-18T10:24:25.247Z,4.57
2023-02-18T10:27:34.087Z,3.03
2023-02-18T10:30:39.422Z,4.00
2023-02-18T10:33:59.192Z,4.00
2023-02-18T10:37:28.646Z,5.68
2023-02-18T10:40:33.601Z,5.60
2023-02-18T10:44:33.289Z,4.35
2023-02-18T10:47:40.333Z,4.68
2023-02-18T10:50:45.171Z,5.38
2023-02-18T10:53:51.058Z,3.80
2023-02-18T10:56:58.440Z,4.32
2023-02-18T11:00:16.771Z,4.50
2023-02-18T11:03:26.109Z,4.18
2023-02-18T11:06:33.884Z,5.55
2023-02-18T11:09:54.909Z,3.53
2023-02-18T11:13:01.113Z,4.03
2023-02-18T11:16:06.668Z,5.13
2023-02-18T11:19:39.928Z,4.10
2023-02-18T11:22:43.840Z,5.28
2023-02-18T11:26:04.478Z,5.20
2023-02-18T11:29:29.265Z,5.35
2023-02-18T11:32:35.451Z,4.50
2023-02-18T11:35:38.406Z,5.57
2023-02-18T11:38:48.802Z,5.13
2023-02-18T11:42:01.914Z,4.55
2023-02-18T11:45:05.703Z,3.75
2023-02-18T11:48:16.506Z,4.68
2023-02-18T11:51:36.811Z,5.05
2023-02-18T11:54:39.233Z,3.63
2023-02-18T11:57:45.704Z,4.40
2023-02-18T12:00:51.795Z,5.90
2023-02-18T12:04:01.286Z,4.72
2023-02-18T12:07:42.507Z,6.07
2023-02-18T12:10:53.626Z,5.30
2023-02-18T12:13:57.839Z,5.50
2023-02-18T12:17:25.176Z,4.70
2023-02-18T12:20:47.757Z,4.43
2023-02-18T12:24:14.626Z,4.57
2023-02-18T12:27:42.324Z,5.68
2023-02-18T12:31:25.172Z,4.53
2023-02-18T12:35:05.920Z,4.72
2023-02-18T12:38:35.283Z,4.65
2023-02-18T12:41:49.397Z,4.35
2023-02-18T12:45:13.371Z,5.15
2023-02-18T12:48:53.217Z,4.80
2023-02-18T12:52:10.162Z,6.18
2023-02-18T12:55:34.319Z,5.80
2023-02-18T12:58:45.691Z,5.55
2023-02-18T13:02:08.994Z,5.68
2023-02-18T13:05:29.961Z,7.22
2023-02-18T13:08:56.492Z,6.28
2023-02-18T13:12:06.998Z,4.43
2023-02-18T13:15:16.822Z,5.47
2023-02-18T13:18:36.093Z,4.50
2023-02-18T13:21:39.573Z,4.93
2023-02-18T13:24:45.665Z,5.20
2023-02-18T13:27:56.771Z,4.53
2023-02-18T13:31:05.587Z,4.40
2023-02-18T13:34:37.730Z,5.22
2023-02-18T13:38:03.052Z,4.55
2023-02-18T13:41:06.113Z,4.47
2023-02-18T13:44:29.581Z,4.65
2023-02-18T13:47:46.670Z,5.05
2023-02-18T13:50:49.269Z,4.60
2023-02-18T13:53:52.774Z,6.32
2023-02-18T13:57:03.193Z,4.05
2023-02-18T14:00:15.307Z,4.32
2023-02-18T14:03:22.198Z,6.15
2023-02-18T14:06:28.178Z,5.35
2023-02-18T14:09:40.041Z,6.22
2023-02-18T14:12:51.994Z,5.80
2023-02-18T14:15:57.546Z,4.70
2023-02-18T14:19:01.666Z,3.47
2023-02-18T14:22:31.691Z,4.72
2023-02-18T14:25:39.081Z,5.45
2023-02-18T14:28:45.493Z,6.15
2023-02-18T14:31:54.663Z,4.88
2023-02-18T14:35:17.917Z,4.45
2023-02-18T14:38:50.744Z,4.70
2023-02-18T14:42:15.927Z,5.20
2023-02-18T14:45:39.618Z,3.83
2023-02-18T14:49:19.146Z,4.82
2023-02-18T14:52:34.495Z,3.97
2023-02-18T14:55:40.986Z,4.78
2023-02-18T14:58:47.364Z,3.28
2023-02-18T15:01:54.550Z,5.25
2023-02-18T15:05:12.477Z,5.25
2023-02-18T15:08:20.081Z,5.50
2023-02-18T15:11:26.374Z,4.93
2023-02-18T15:14:32.286Z,4.35
2023-02-18T15:17:34.749Z,5.05
2023-02-18T15:20:39.150Z,4.78
2023-02-18T15:23:41.838Z,4.00
2023-02-18T15:26:47.013Z,5.35
2023-02-18T15:29:52.396Z,4.78
2023-02-18T15:32:57.164Z,5.00
2023-02-18T15:36:11.428Z,5.32
2023-02-18T15:39:13.794Z,5.13
2023-02-18T15:42:34.737Z,4.35
2023-02-18T15:45:44.127Z,4.15
2023-02-18T15:48:48.974Z,4.40
2023-02-18T15:51:57.775Z,5.32
2023-02-18T15:55:08.216Z,4.05
2023-02-18T15:58:31.599Z,4.63
2023-02-18T16:01:36.039Z,6.50
2023-02-18T16:04:41.750Z,4.63
2023-02-18T16:07:59.090Z,5.03
2023-02-18T16:11:07.454Z,4.20
2023-02-18T16:14:49.201Z,5.40
2023-02-18T16:17:51.426Z,5.22
2023-02-18T16:21:01.543Z,4.38
2023-02-18T16:24:21.894Z,4.20
2023-02-18T16:27:33.802Z,4.97
2023-02-18T16:30:36.091Z,5.22
2023-02-18T16:33:40.259Z,5.30
2023-02-18T16:37:03.763Z,4.07
2023-02-18T16:40:28.421Z,5.15
2023-02-18T16:43:32.885Z,4.57
2023-02-18T16:49:47.551Z,3.58
2023-02-18T16:52:50.542Z,3.78
2023-02-18T16:55:53.565Z,5.82
2023-02-18T16:58:55.756Z,3.78
2023-02-18T17:01:57.960Z,5.18
2023-02-18T17:05:00.049Z,4.88
2023-02-18T17:08:26.657Z,4.70
2023-02-18T17:11:36.057Z,3.90
2023-02-18T17:14:38.347Z,3.83
2023-02-18T17:17:40.426Z,5.65
2023-02-18T17:20:42.672Z,5.43
2023-02-18T17:23:45.026Z,4.45
2023-02-18T17:26:47.280Z,5.25
2023-02-18T17:29:49.415Z,4.20
2023-02-18T17:32:51.549Z,4.80
2023-02-18T17:35:53.970Z,3.28
2023-02-18T17:38:57.734Z,5.18
2023-02-18T17:41:59.803Z,4.67
2023-02-18T17:45:04.138Z,3.83
2023-02-18T17:48:06.521Z,5.20
2023-02-18T17:51:18.352Z,4.25
2023-02-18T17:54:23.061Z,3.92
2023-02-18T17:57:26.023Z,4.50
2023-02-18T18:00:42.207Z,4.68
2023-02-18T18:03:44.673Z,4.05
2023-02-18T18:06:50.012Z,4.18
2023-02-18T18:09:52.116Z,6.22
2023-02-18T18:12:54.503Z,3.90
2023-02-18T18:15:57.981Z,4.53
2023-02-18T18:19:00.392Z,4.55
2023-02-18T18:22:02.570Z,4.63
2023-02-18T18:25:18.248Z,3.95
2023-02-18T18:28:20.900Z,6.88
2023-02-18T18:31:23.034Z,5.45
2023-02-18T18:34:25.170Z,6.38
2023-02-18T18:37:27.142Z,4.57
2023-02-18T18:40:32.980Z,6.45
2023-02-18T18:43:35.797Z,5.23
2023-02-18T18:46:38.248Z,6.72
2023-02-18T18:49:40.556Z,5.25
2023-02-18T18:52:43.825Z,5.68
2023-02-18T18:55:46.609Z,4.82
2023-02-18T18:58:50.063Z,4.38
2023-02-18T19:01:52.626Z,5.75
2023-02-18T19:04:55.783Z,6.72
2023-02-18T19:07:58.910Z,5.53
2023-02-18T19:11:02.614Z,5.93
2023-02-18T19:14:11.126Z,5.97
2023-02-18T19:17:13.268Z,6.60
2023-02-18T19:20:18.440Z,8.07
2023-02-18T19:23:20.407Z,5.88
2023-02-18T19:26:23.399Z,6.45
2023-02-18T19:29:25.767Z,5.15
2023-02-18T19:32:27.848Z,4.15
2023-02-18T19:35:31.072Z,5.85
2023-02-18T19:38:33.144Z,6.40
2023-02-18T19:41:35.265Z,5.47
2023-02-18T19:44:37.318Z,5.40
2023-02-18T19:47:39.491Z,6.20
2023-02-18T19:50:43.271Z,4.72
2023-02-18T19:53:46.292Z,5.38
2023-02-18T19:56:48.399Z,4.70
2023-02-18T19:59:50.588Z,4.53
2023-02-18T20:02:52.803Z,5.30
2023-02-18T20:05:55.141Z,4.45
2023-02-18T20:08:57.374Z,4.23
2023-02-18T20:11:59.710Z,4.90
2023-02-18T20:15:02.679Z,3.95
2023-02-18T20:18:04.818Z,3.73
2023-02-18T20:21:09.722Z,4.70
2023-02-18T20:24:12.023Z,3.60
2023-02-18T20:27:14.159Z,3.57
2023-02-18T20:30:16.325Z,3.77
2023-02-18T20:33:18.412Z,4.30
2023-02-18T20:36:20.590Z,4.13
2023-02-18T20:39:23.340Z,3.80
2023-02-18T20:42:25.608Z,4.87
2023-02-18T20:45:27.863Z,4.10
2023-02-18T20:48:31.314Z,4.63
2023-02-18T20:51:34.443Z,4.70
2023-02-18T20:54:37.034Z,4.63
2023-02-18T20:57:39.154Z,4.90
2023-02-18T21:00:41.611Z,4.33
2023-02-18T21:03:47.341Z,4.30
2023-02-18T21:06:50.605Z,4.73
2023-02-18T21:09:52.742Z,4.30
2023-02-18T21:12:54.740Z,5.03
2023-02-18T21:15:57.075Z,3.07
2023-02-18T21:18:59.636Z,3.67
2023-02-18T21:22:01.728Z,4.33
2023-02-18T21:25:04.069Z,3.63
2023-02-18T21:28:07.558Z,3.23
2023-02-18T21:31:37.539Z,3.95
2023-02-18T21:34:40.137Z,3.10
2023-02-18T21:37:44.370Z,3.85
2023-02-18T21:40:47.009Z,3.97
2023-02-18T21:43:49.537Z,3.50
2023-02-18T21:46:51.800Z,3.70
2023-02-18T21:49:54.037Z,4.67
2023-02-18T21:52:59.253Z,4.20
2023-02-18T21:56:10.654Z,3.60
2023-02-18T21:59:13.145Z,4.63
2023-02-18T22:02:19.223Z,3.67
2023-02-18T22:05:25.799Z,3.23
2023-02-18T22:08:29.141Z,3.47
2023-02-18T22:11:32.174Z,3.83
2023-02-18T22:14:34.453Z,3.73
2023-02-18T22:17:37.259Z,2.77
2023-02-18T22:20:39.653Z,3.83
2023-02-18T22:23:41.953Z,3.03
2023-02-18T22:26:45.189Z,3.10
2023-02-18T22:29:47.519Z,4.47
2023-02-18T22:32:49.890Z,4.33
2023-02-18T22:35:51.999Z,3.90
2023-02-18T22:38:54.762Z,3.50
2023-02-18T22:41:57.053Z,4.00
2023-02-18T22:45:03.029Z,3.37
2023-02-18T22:48:05.528Z,4.10
2023-02-18T22:51:17.071Z,4.23
2023-02-18T22:54:20.146Z,3.43
2023-02-18T22:57:22.340Z,3.43
2023-02-18T23:00:25.540Z,3.00
2023-02-18T23:03:28.877Z,3.37
2023-02-18T23:06:31.495Z,3.60
2023-02-18T23:09:40.081Z,3.53
2023-02-18T23:12:42.437Z,3.83
2023-02-18T23:15:45.023Z,3.20
2023-02-18T23:18:47.325Z,4.17
2023-02-18T23:21:49.747Z,3.40
2023-02-18T23:24:51.963Z,3.20
2023-02-18T23:27:54.419Z,3.73
2023-02-18T23:30:56.786Z,4.57
2023-02-18T23:34:01.823Z,3.20
2023-02-18T23:37:04.561Z,4.47
2023-02-18T23:40:08.754Z,3.97
2023-02-18T23:43:13.485Z,5.60
2023-02-18T23:46:17.757Z,3.20
2023-02-18T23:49:23.458Z,3.20
2023-02-18T23:55:28.486Z,3.43
2023-02-18T23:58:30.755Z,4.27
